createdAt,value
2022-12-31T00:00:21.657Z,9.43
2022-12-31T00:02:48.928Z,9.05
2022-12-31T00:05:16.092Z,8.02
2022-12-31T00:10:09.243Z,8.80
2022-12-31T00:12:36.236Z,9.75
2022-12-31T00:15:03.665Z,8.70
2022-12-31T00:17:31.353Z,9.68
2022-12-31T00:19:58.535Z,8.50
2022-12-31T00:22:25.570Z,9.23
2022-12-31T00:24:52.597Z,8.98
2022-12-31T00:27:19.613Z,8.77
2022-12-31T00:29:46.699Z,8.80
2022-12-31T00:32:13.800Z,9.90
2022-12-31T00:34:40.798Z,10.02
2022-12-31T00:37:07.815Z,10.00
2022-12-31T00:39:34.804Z,10.63
2022-12-31T00:42:01.854Z,9.38
2022-12-31T00:44:28.851Z,9.43
2022-12-31T00:46:55.911Z,9.77
2022-12-31T00:49:22.936Z,10.88
2022-12-31T00:51:49.929Z,10.70
2022-12-31T00:54:16.884Z,9.07
2022-12-31T00:56:43.864Z,9.48
2022-12-31T00:59:10.902Z,8.32
2022-12-31T01:01:39.973Z,9.15
2022-12-31T01:04:11.383Z,7.65
2022-12-31T01:06:39.465Z,8.18
2022-12-31T01:09:07.363Z,7.78
2022-12-31T01:11:34.659Z,7.32
2022-12-31T01:14:04.195Z,9.23
2022-12-31T01:16:40.194Z,8.00
2022-12-31T01:19:10.236Z,7.65
2022-12-31T01:21:39.713Z,8.15
2022-12-31T01:24:07.937Z,8.52
2022-12-31T01:26:35.373Z,8.07
2022-12-31T01:29:02.667Z,8.07
2022-12-31T01:31:29.861Z,8.48
2022-12-31T01:33:58.194Z,7.53
2022-12-31T01:36:28.073Z,8.18
2022-12-31T01:38:57.193Z,7.75
2022-12-31T01:41:27.786Z,7.65
2022-12-31T01:44:23.773Z,7.82
2022-12-31T01:46:58.361Z,8.00
2022-12-31T01:49:41.476Z,7.80
2022-12-31T01:52:23.401Z,7.95
2022-12-31T01:55:18.627Z,8.10
2022-12-31T01:57:48.490Z,6.65
2022-12-31T02:00:16.911Z,8.35
2022-12-31T02:02:44.568Z,8.18
2022-12-31T02:05:45.404Z,7.90
2022-12-31T02:08:12.751Z,7.93
2022-12-31T02:10:39.840Z,8.32
2022-12-31T02:13:07.585Z,8.48
2022-12-31T02:15:57.997Z,8.23
2022-12-31T02:18:35.255Z,8.43
2022-12-31T02:21:20.741Z,8.98
2022-12-31T02:24:23.012Z,9.07
2022-12-31T02:27:20.775Z,9.23
2022-12-31T02:30:11.952Z,10.85
2022-12-31T02:32:50.982Z,10.75
2022-12-31T02:35:20.837Z,8.95
2022-12-31T02:37:51.807Z,9.07
2022-12-31T02:40:21.309Z,9.73
2022-12-31T02:42:54.929Z,9.90
2022-12-31T02:45:29.902Z,9.25
2022-12-31T02:48:23.029Z,12.60
2022-12-31T02:50:55.961Z,13.10
2022-12-31T02:53:47.980Z,12.10
2022-12-31T02:56:53.703Z,11.38
2022-12-31T02:59:56.631Z,10.15
2022-12-31T03:02:25.457Z,9.95
2022-12-31T03:04:57.409Z,8.55
2022-12-31T03:07:27.749Z,7.82
2022-12-31T03:09:55.501Z,8.82
2022-12-31T03:12:44.286Z,8.90
2022-12-31T03:15:22.317Z,8.18
2022-12-31T03:18:09.859Z,8.85
2022-12-31T03:21:01.317Z,8.23
2022-12-31T03:23:32.001Z,7.90
2022-12-31T03:26:00.119Z,8.73
2022-12-31T03:28:29.788Z,8.68
2022-12-31T03:33:41.010Z,7.45
2022-12-31T03:36:14.367Z,8.68
2022-12-31T03:38:41.754Z,9.38
2022-12-31T03:41:11.220Z,8.77
2022-12-31T03:43:38.562Z,8.43
2022-12-31T03:46:05.871Z,7.70
2022-12-31T03:48:32.994Z,8.27
2022-12-31T03:50:59.963Z,7.15
2022-12-31T03:53:27.475Z,7.80
2022-12-31T03:55:55.099Z,8.43
2022-12-31T03:58:22.753Z,8.10
2022-12-31T04:00:50.153Z,9.25
2022-12-31T04:03:17.349Z,8.52
2022-12-31T04:05:44.441Z,8.73
2022-12-31T04:08:11.408Z,8.30
2022-12-31T04:10:38.412Z,8.25
2022-12-31T04:13:05.465Z,8.77
2022-12-31T04:15:32.878Z,8.57
2022-12-31T04:17:59.940Z,8.18
2022-12-31T04:20:26.920Z,7.70
2022-12-31T04:22:53.944Z,7.35
2022-12-31T04:25:20.973Z,7.57
2022-12-31T04:27:48.212Z,7.93
2022-12-31T04:30:15.581Z,7.55
2022-12-31T04:32:42.988Z,7.60
2022-12-31T04:35:11.661Z,6.97
2022-12-31T04:37:38.798Z,7.72
2022-12-31T04:40:07.380Z,7.70
2022-12-31T04:42:35.329Z,7.40
2022-12-31T04:45:02.443Z,7.78
2022-12-31T04:47:30.630Z,7.68
2022-12-31T04:49:57.607Z,7.30
2022-12-31T04:52:24.624Z,6.65
2022-12-31T04:54:51.641Z,8.30
2022-12-31T04:57:18.666Z,7.40
2022-12-31T04:59:45.731Z,7.63
2022-12-31T05:02:13.027Z,7.55
2022-12-31T05:04:40.086Z,7.63
2022-12-31T05:07:07.054Z,7.13
2022-12-31T05:09:34.245Z,7.40
2022-12-31T05:12:01.238Z,7.55
2022-12-31T05:14:28.232Z,8.13
2022-12-31T05:16:55.390Z,7.60
2022-12-31T05:19:22.495Z,7.68
2022-12-31T05:22:09.461Z,7.28
2022-12-31T05:24:36.494Z,6.65
2022-12-31T05:27:03.792Z,7.20
2022-12-31T05:29:30.794Z,7.18
2022-12-31T05:31:57.769Z,7.80
2022-12-31T05:34:24.873Z,7.35
2022-12-31T05:36:51.848Z,5.97
2022-12-31T05:39:18.882Z,6.05
2022-12-31T05:41:45.960Z,6.53
2022-12-31T05:44:13.176Z,6.13
2022-12-31T05:46:40.508Z,6.18
2022-12-31T05:49:07.521Z,5.50
2022-12-31T05:51:34.723Z,6.43
2022-12-31T05:54:01.726Z,5.28
2022-12-31T05:56:28.814Z,6.57
2022-12-31T05:58:56.405Z,6.38
2022-12-31T06:01:23.524Z,5.72
2022-12-31T06:03:50.712Z,6.18
2022-12-31T06:06:17.773Z,6.15
2022-12-31T06:08:44.777Z,6.45
2022-12-31T06:11:11.747Z,5.57
2022-12-31T06:13:38.778Z,6.00
2022-12-31T06:16:07.973Z,5.10
2022-12-31T06:18:35.418Z,5.60
2022-12-31T06:21:04.175Z,5.78
2022-12-31T06:23:31.402Z,5.43
2022-12-31T06:26:02.640Z,5.72
2022-12-31T06:28:29.634Z,5.63
2022-12-31T06:31:05.284Z,5.88
2022-12-31T06:33:32.846Z,4.95
2022-12-31T06:36:02.869Z,5.68
2022-12-31T06:38:32.101Z,5.65
2022-12-31T06:41:03.819Z,5.35
2022-12-31T06:43:30.809Z,5.65
2022-12-31T06:46:01.539Z,5.50
2022-12-31T06:48:28.561Z,5.35
2022-12-31T06:50:55.685Z,5.93
2022-12-31T06:53:22.820Z,5.55
2022-12-31T06:55:50.287Z,5.10
2022-12-31T06:58:17.770Z,5.95
2022-12-31T07:01:00.317Z,4.82
2022-12-31T07:03:45.702Z,4.82
2022-12-31T07:06:17.032Z,5.32
2022-12-31T07:09:01.588Z,5.30
2022-12-31T07:11:54.594Z,5.13
2022-12-31T07:14:34.600Z,5.15
2022-12-31T07:17:26.349Z,4.15
2022-12-31T07:20:17.664Z,4.43
2022-12-31T07:22:46.197Z,4.55
2022-12-31T07:25:15.108Z,5.70
2022-12-31T07:28:02.976Z,4.50
2022-12-31T07:30:52.579Z,4.40
2022-12-31T07:33:43.096Z,4.78
2022-12-31T07:36:31.037Z,4.85
2022-12-31T07:39:20.683Z,4.43
2022-12-31T07:42:25.894Z,4.35
2022-12-31T07:44:52.983Z,3.92
2022-12-31T07:47:21.572Z,4.13
2022-12-31T07:49:48.862Z,5.32
2022-12-31T07:52:16.237Z,3.70
2022-12-31T07:54:43.538Z,3.75
2022-12-31T07:57:13.549Z,4.40
2022-12-31T08:00:02.016Z,3.92
2022-12-31T08:03:02.480Z,3.50
2022-12-31T08:05:44.248Z,4.45
2022-12-31T08:08:34.549Z,4.60
2022-12-31T08:11:23.043Z,4.65
2022-12-31T08:13:52.849Z,3.90
2022-12-31T08:16:20.285Z,4.22
2022-12-31T08:18:47.567Z,4.55
2022-12-31T08:21:35.382Z,4.13
2022-12-31T08:24:22.657Z,4.10
2022-12-31T08:27:12.061Z,4.03
2022-12-31T08:30:16.566Z,3.95
2022-12-31T08:32:49.091Z,4.60
2022-12-31T08:35:21.816Z,4.45
2022-12-31T08:38:07.729Z,4.10
2022-12-31T08:40:56.436Z,4.13
2022-12-31T08:43:49.496Z,4.82
2022-12-31T08:47:02.599Z,4.05
2022-12-31T08:49:32.324Z,3.75
2022-12-31T08:52:00.244Z,3.83
2022-12-31T08:54:27.801Z,4.20
2022-12-31T08:57:11.140Z,4.35
2022-12-31T09:00:05.952Z,4.78
2022-12-31T09:02:53.962Z,3.42
2022-12-31T09:05:35.609Z,4.60
2022-12-31T09:08:24.277Z,4.50
2022-12-31T09:10:58.267Z,3.88
2022-12-31T09:13:31.614Z,4.50
2022-12-31T09:15:58.526Z,4.28
2022-12-31T09:18:29.745Z,4.13
2022-12-31T09:21:00.351Z,4.93
2022-12-31T09:23:28.057Z,3.92
2022-12-31T09:26:11.537Z,4.45
2022-12-31T09:28:50.618Z,4.70
2022-12-31T09:31:46.163Z,4.53
2022-12-31T09:34:37.940Z,4.80
2022-12-31T09:37:15.502Z,4.75
2022-12-31T09:39:47.881Z,4.70
2022-12-31T09:42:26.804Z,4.68
2022-12-31T09:45:21.194Z,4.78
2022-12-31T09:47:54.086Z,5.47
2022-12-31T09:50:43.462Z,4.05
2022-12-31T09:53:16.573Z,4.85
2022-12-31T09:56:05.458Z,4.38
2022-12-31T09:58:38.115Z,4.90
2022-12-31T10:01:23.235Z,5.15
2022-12-31T10:04:19.825Z,4.47
2022-12-31T10:06:58.896Z,4.07
2022-12-31T10:09:47.267Z,4.47
2022-12-31T10:12:29.090Z,4.35
2022-12-31T10:15:02.064Z,4.50
2022-12-31T10:17:53.224Z,4.45
2022-12-31T10:20:45.474Z,4.40
2022-12-31T10:23:21.560Z,4.78
2022-12-31T10:26:07.850Z,4.75
2022-12-31T10:28:46.778Z,3.58
2022-12-31T10:31:31.224Z,4.40
2022-12-31T10:34:13.223Z,4.88
2022-12-31T10:36:58.359Z,5.18
2022-12-31T10:39:31.699Z,5.78
2022-12-31T10:42:36.008Z,5.25
2022-12-31T10:45:21.525Z,4.43
2022-12-31T10:48:06.716Z,5.15
2022-12-31T10:51:00.769Z,4.68
2022-12-31T10:53:52.496Z,4.88
2022-12-31T10:56:56.204Z,4.25
2022-12-31T10:59:41.155Z,4.60
2022-12-31T11:02:22.988Z,4.97
2022-12-31T11:05:29.388Z,4.75
2022-12-31T11:08:23.883Z,4.30
2022-12-31T11:11:11.094Z,4.40
2022-12-31T11:13:49.714Z,3.90
2022-12-31T11:16:32.052Z,3.75
2022-12-31T11:19:17.799Z,3.97
2022-12-31T11:21:56.752Z,4.10
2022-12-31T11:24:37.246Z,4.43
2022-12-31T11:27:10.499Z,4.38
2022-12-31T11:29:48.695Z,4.95
2022-12-31T11:32:31.095Z,3.80
2022-12-31T11:35:21.073Z,4.00
2022-12-31T11:37:54.913Z,4.00
2022-12-31T11:40:44.348Z,4.78
2022-12-31T11:43:17.091Z,4.38
2022-12-31T11:45:59.275Z,5.63
2022-12-31T11:48:49.177Z,4.75
2022-12-31T11:51:34.619Z,4.82
2022-12-31T11:54:13.513Z,5.10
2022-12-31T11:56:58.453Z,5.82
2022-12-31T11:59:25.497Z,5.43
2022-12-31T12:02:00.681Z,5.30
2022-12-31T12:04:28.160Z,5.28
2022-12-31T12:06:55.325Z,4.95
2022-12-31T12:09:34.908Z,4.47
2022-12-31T12:12:05.291Z,4.28
2022-12-31T12:14:38.508Z,4.32
2022-12-31T12:17:14.768Z,4.22
2022-12-31T12:19:53.961Z,4.60
2022-12-31T12:22:26.685Z,3.70
2022-12-31T12:25:03.656Z,3.75
2022-12-31T12:27:33.470Z,3.47
2022-12-31T12:30:19.161Z,2.90
2022-12-31T12:33:04.976Z,3.75
2022-12-31T12:35:34.320Z,3.67
2022-12-31T12:38:06.609Z,4.00
2022-12-31T12:40:35.352Z,3.63
2022-12-31T12:43:03.625Z,3.92
2022-12-31T12:45:51.158Z,4.22
2022-12-31T12:48:44.976Z,4.53
2022-12-31T12:51:45.427Z,4.60
2022-12-31T12:54:21.065Z,3.90
2022-12-31T12:57:00.137Z,4.32
2022-12-31T12:59:45.497Z,4.22
2022-12-31T13:02:48.897Z,4.30
2022-12-31T13:05:15.891Z,4.72
2022-12-31T13:07:59.546Z,4.65
2022-12-31T13:10:48.225Z,4.82
2022-12-31T13:13:40.833Z,3.85
2022-12-31T13:16:30.398Z,4.00
2022-12-31T13:19:32.497Z,3.92
2022-12-31T13:22:18.159Z,4.22
2022-12-31T13:24:50.745Z,3.70
2022-12-31T13:27:55.986Z,3.72
2022-12-31T13:30:35.500Z,3.72
2022-12-31T13:33:14.312Z,3.90
2022-12-31T13:35:55.494Z,3.45
2022-12-31T13:38:52.408Z,5.38
2022-12-31T13:41:30.587Z,4.65
2022-12-31T13:44:00.317Z,3.88
2022-12-31T13:46:52.677Z,4.43
2022-12-31T13:49:23.107Z,3.33
2022-12-31T13:51:55.405Z,4.00
2022-12-31T13:54:33.416Z,3.45
2022-12-31T13:57:05.842Z,3.63
2022-12-31T13:59:37.655Z,3.65
2022-12-31T14:02:41.242Z,3.58
2022-12-31T14:05:40.397Z,4.10
2022-12-31T14:08:07.710Z,4.32
2022-12-31T14:10:45.152Z,3.60
2022-12-31T14:13:36.986Z,4.53
2022-12-31T14:16:29.681Z,3.97
2022-12-31T14:19:11.546Z,3.58
2022-12-31T14:22:00.305Z,4.43
2022-12-31T14:24:39.497Z,3.95
2022-12-31T14:27:13.504Z,4.32
2022-12-31T14:30:03.913Z,4.53
2022-12-31T14:32:35.394Z,4.43
2022-12-31T14:35:29.818Z,4.60
2022-12-31T14:38:11.901Z,4.30
2022-12-31T14:41:33.303Z,4.45
2022-12-31T14:44:18.817Z,4.35
2022-12-31T14:47:37.091Z,4.82
2022-12-31T14:50:21.370Z,4.93
2022-12-31T14:52:55.191Z,4.25
2022-12-31T14:55:31.409Z,3.90
2022-12-31T15:00:59.392Z,4.95
2022-12-31T15:03:37.899Z,3.88
2022-12-31T15:06:15.248Z,3.40
2022-12-31T15:08:51.233Z,2.70
2022-12-31T15:11:53.691Z,2.70
2022-12-31T15:14:35.276Z,3.25
2022-12-31T15:17:34.712Z,4.30
2022-12-31T15:20:20.424Z,3.13
2022-12-31T15:22:49.310Z,3.17
2022-12-31T15:25:41.390Z,3.40
2022-12-31T15:28:36.350Z,3.35
2022-12-31T15:31:13.047Z,3.22
2022-12-31T15:34:04.116Z,3.40
2022-12-31T15:36:35.853Z,3.47
2022-12-31T15:39:10.076Z,3.53
2022-12-31T15:41:38.383Z,3.20
2022-12-31T15:44:46.312Z,4.43
2022-12-31T15:47:29.676Z,4.10
2022-12-31T15:50:01.849Z,4.55
2022-12-31T15:52:37.802Z,4.00
2022-12-31T15:55:06.131Z,3.90
2022-12-31T15:57:43.495Z,4.20
2022-12-31T16:00:22.138Z,4.30
2022-12-31T16:02:54.972Z,3.75
2022-12-31T16:05:25.511Z,4.35
2022-12-31T16:07:57.871Z,4.40
2022-12-31T16:10:29.725Z,5.07
2022-12-31T16:12:58.529Z,4.97
2022-12-31T16:15:35.166Z,5.45
2022-12-31T16:18:05.664Z,5.28
2022-12-31T16:20:34.767Z,5.80
2022-12-31T16:23:03.598Z,5.60
2022-12-31T16:25:33.829Z,5.95
2022-12-31T16:28:03.753Z,6.43
2022-12-31T16:33:07.241Z,5.15
2022-12-31T16:35:36.725Z,5.38
2022-12-31T16:38:15.974Z,6.38
2022-12-31T16:41:02.732Z,6.00
2022-12-31T16:43:37.779Z,6.35
2022-12-31T16:46:19.860Z,5.32
2022-12-31T16:48:54.857Z,5.43
2022-12-31T16:51:26.018Z,5.57
2022-12-31T16:53:53.629Z,4.78
2022-12-31T16:56:34.437Z,4.93
2022-12-31T16:59:13.637Z,4.88
2022-12-31T17:01:42.677Z,5.43
2022-12-31T17:04:12.374Z,5.50
2022-12-31T17:06:39.403Z,4.50
2022-12-31T17:09:14.598Z,4.93
2022-12-31T17:11:57.677Z,4.28
2022-12-31T17:14:30.566Z,4.47
2022-12-31T17:17:04.109Z,4.80
2022-12-31T17:19:55.924Z,5.03
2022-12-31T17:22:32.948Z,5.05
2022-12-31T17:25:21.954Z,4.75
2022-12-31T17:30:35.282Z,5.68
2022-12-31T17:33:05.685Z,5.60
2022-12-31T17:35:36.925Z,4.50
2022-12-31T17:38:22.056Z,4.10
2022-12-31T17:40:55.271Z,2.60
2022-12-31T17:43:23.991Z,3.35
2022-12-31T17:45:52.898Z,2.75
2022-12-31T17:48:23.304Z,3.20
2022-12-31T17:50:54.890Z,2.65
2022-12-31T17:53:22.132Z,2.67
2022-12-31T17:55:52.432Z,3.40
2022-12-31T17:58:33.180Z,3.20
2022-12-31T18:01:01.625Z,3.17
2022-12-31T18:03:28.829Z,3.03
2022-12-31T18:05:55.855Z,3.30
2022-12-31T18:08:23.074Z,3.28
2022-12-31T18:10:51.367Z,2.85
2022-12-31T18:13:22.553Z,2.97
2022-12-31T18:15:49.737Z,2.60
2022-12-31T18:18:25.581Z,2.63
2022-12-31T18:21:00.156Z,2.67
2022-12-31T18:23:47.900Z,2.30
2022-12-31T18:26:21.476Z,2.83
2022-12-31T18:28:49.514Z,2.67
2022-12-31T18:31:18.245Z,3.35
2022-12-31T18:33:46.979Z,2.83
2022-12-31T18:36:16.316Z,3.30
2022-12-31T18:38:43.361Z,3.25
2022-12-31T18:41:19.983Z,3.60
2022-12-31T18:43:47.750Z,3.65
2022-12-31T18:46:18.479Z,4.15
2022-12-31T18:48:45.593Z,3.00
2022-12-31T18:51:21.664Z,3.95
2022-12-31T18:53:50.675Z,4.53
2022-12-31T18:56:22.222Z,3.40
2022-12-31T18:58:49.345Z,3.15
2022-12-31T19:01:27.642Z,3.47
2022-12-31T19:04:02.157Z,3.40
2022-12-31T19:06:30.199Z,3.10
2022-12-31T19:09:00.651Z,3.47
2022-12-31T19:11:28.318Z,4.78
2022-12-31T19:13:55.496Z,3.55
2022-12-31T19:16:22.522Z,3.55
2022-12-31T19:18:50.882Z,3.80
2022-12-31T19:21:23.041Z,4.25
2022-12-31T19:23:50.950Z,4.95
2022-12-31T19:26:20.643Z,4.18
2022-12-31T19:31:15.146Z,4.88
2022-12-31T19:33:42.700Z,4.45
2022-12-31T19:36:17.969Z,4.32
2022-12-31T19:38:45.156Z,4.05
2022-12-31T19:41:18.265Z,4.85
2022-12-31T19:43:46.707Z,4.65
2022-12-31T19:46:18.783Z,4.40
2022-12-31T19:48:46.335Z,5.28
2022-12-31T19:51:19.450Z,4.80
2022-12-31T19:53:47.636Z,5.90
2022-12-31T19:56:17.716Z,5.38
2022-12-31T19:58:45.025Z,5.97
2022-12-31T20:01:21.082Z,6.43
2022-12-31T20:03:49.271Z,6.03
2022-12-31T20:06:17.570Z,5.47
2022-12-31T20:08:44.961Z,5.18
2022-12-31T20:11:18.696Z,6.05
2022-12-31T20:13:47.307Z,5.50
2022-12-31T20:16:17.728Z,5.25
2022-12-31T20:18:46.507Z,5.10
2022-12-31T20:21:19.697Z,5.38
2022-12-31T20:23:48.248Z,5.18
2022-12-31T20:26:15.326Z,7.60
2022-12-31T20:28:42.330Z,5.78
2022-12-31T20:31:12.352Z,6.35
2022-12-31T20:33:39.785Z,4.93
2022-12-31T20:36:08.741Z,5.35
2022-12-31T20:38:35.855Z,4.57
2022-12-31T20:41:07.332Z,5.30
2022-12-31T20:43:35.289Z,4.70
2022-12-31T20:46:16.546Z,5.03
2022-12-31T20:48:44.738Z,5.90
2022-12-31T20:51:13.383Z,5.28
2022-12-31T20:53:45.166Z,5.63
2022-12-31T20:56:12.207Z,5.45
2022-12-31T20:58:39.284Z,5.80
2022-12-31T21:01:08.388Z,6.40
2022-12-31T21:04:04.362Z,5.68
2022-12-31T21:06:25.415Z,6.90
2022-12-31T21:08:52.556Z,6.68
2022-12-31T21:11:38.350Z,6.30
2022-12-31T21:14:05.554Z,7.43
2022-12-31T21:16:32.651Z,6.22
2022-12-31T21:18:59.703Z,7.57
2022-12-31T21:21:26.795Z,9.38
2022-12-31T21:23:53.902Z,9.13
2022-12-31T21:26:21.008Z,7.68
2022-12-31T21:28:48.108Z,6.70
2022-12-31T21:31:15.513Z,7.18
2022-12-31T21:33:47.373Z,6.60
2022-12-31T21:36:15.283Z,11.35
2022-12-31T21:38:42.615Z,14.25
2022-12-31T21:41:33.312Z,10.85
2022-12-31T21:44:01.360Z,12.75
2022-12-31T21:46:28.928Z,10.23
2022-12-31T21:48:58.474Z,9.50
2022-12-31T21:51:26.614Z,9.98
2022-12-31T21:53:53.721Z,11.55
2022-12-31T21:56:21.621Z,10.57
2022-12-31T21:59:16.136Z,10.38
2022-12-31T22:02:01.899Z,10.23
2022-12-31T22:05:00.802Z,12.48
2022-12-31T22:07:16.186Z,14.15
2022-12-31T22:09:43.214Z,12.23
2022-12-31T22:12:10.311Z,15.13
2022-12-31T22:14:37.273Z,20.30
2022-12-31T22:17:04.275Z,14.27
2022-12-31T22:19:31.390Z,12.10
2022-12-31T22:21:58.417Z,13.73
2022-12-31T22:24:25.401Z,14.75
2022-12-31T22:26:55.633Z,16.35
2022-12-31T22:29:23.715Z,17.05
2022-12-31T22:31:50.706Z,16.75
2022-12-31T22:34:18.113Z,14.95
2022-12-31T22:36:45.134Z,17.52
2022-12-31T22:39:44.761Z,19.73
2022-12-31T22:42:03.190Z,17.67
2022-12-31T22:44:30.215Z,13.95
2022-12-31T22:46:57.370Z,13.35
2022-12-31T22:49:25.752Z,13.38
2022-12-31T22:51:56.707Z,13.50
2022-12-31T22:54:25.945Z,11.88
2022-12-31T22:56:53.068Z,13.93
2022-12-31T22:59:20.199Z,15.05
2022-12-31T23:01:47.666Z,15.80
2022-12-31T23:04:14.993Z,16.95
2022-12-31T23:06:45.272Z,14.32
2022-12-31T23:09:32.503Z,12.98
2022-12-31T23:12:00.493Z,15.13
2022-12-31T23:14:46.271Z,13.95
2022-12-31T23:17:36.297Z,13.07
2022-12-31T23:20:22.970Z,12.52
2022-12-31T23:23:08.583Z,20.42
2022-12-31T23:25:46.200Z,13.25
2022-12-31T23:28:16.425Z,13.00
2022-12-31T23:30:43.664Z,12.15
2022-12-31T23:33:16.170Z,12.48
2022-12-31T23:35:43.849Z,12.32
2022-12-31T23:38:11.654Z,12.82
2022-12-31T23:40:38.704Z,13.73
2022-12-31T23:43:07.557Z,13.80
2022-12-31T23:45:35.382Z,13.88
2022-12-31T23:48:02.843Z,17.33
2022-12-31T23:50:29.868Z,17.42
2022-12-31T23:52:56.872Z,11.45
2022-12-31T23:55:23.980Z,13.68
2022-12-31T23:57:50.927Z,11.60
